sensor_id;sensor_type;location;lat;lon;timestamp;P1;durP1;ratioP1;P2;durP2;ratioP2
47539;SDS011;33280;52.152;21.052;2023-06-22T00:00:03;34.10;;;25.63;;
47539;SDS011;33280;52.152;21.052;2023-06-22T00:02:35;32.93;;;25.17;;
47539;SDS011;33280;52.152;21.052;2023-06-22T00:05:03;33.13;;;26.50;;
47539;SDS011;33280;52.152;21.052;2023-06-22T00:07:30;33.53;;;26.27;;
47539;SDS011;33280;52.152;21.052;2023-06-22T00:09:57;34.97;;;26.87;;
47539;SDS011;33280;52.152;21.052;2023-06-22T00:12:24;33.23;;;26.40;;
47539;SDS011;33280;52.152;21.052;2023-06-22T00:14:51;33.87;;;26.23;;
47539;SDS011;33280;52.152;21.052;2023-06-22T00:17:18;32.57;;;25.43;;
47539;SDS011;33280;52.152;21.052;2023-06-22T00:19:46;34.13;;;25.90;;
47539;SDS011;33280;52.152;21.052;2023-06-22T00:22:14;32.00;;;25.77;;
47539;SDS011;33280;52.152;21.052;2023-06-22T00:24:41;34.43;;;26.33;;
47539;SDS011;33280;52.152;21.052;2023-06-22T00:27:08;33.27;;;25.53;;
47539;SDS011;33280;52.152;21.052;2023-06-22T00:29:35;34.23;;;26.13;;
47539;SDS011;33280;52.152;21.052;2023-06-22T00:32:02;34.33;;;26.40;;
47539;SDS011;33280;52.152;21.052;2023-06-22T00:34:30;35.83;;;25.70;;
47539;SDS011;33280;52.152;21.052;2023-06-22T00:36:56;32.70;;;25.73;;
47539;SDS011;33280;52.152;21.052;2023-06-22T00:39:23;35.60;;;27.97;;
47539;SDS011;33280;52.152;21.052;2023-06-22T00:41:50;32.47;;;26.23;;
47539;SDS011;33280;52.152;21.052;2023-06-22T00:44:17;32.87;;;26.57;;
47539;SDS011;33280;52.152;21.052;2023-06-22T00:46:44;34.23;;;27.53;;
47539;SDS011;33280;52.152;21.052;2023-06-22T00:49:11;34.17;;;27.30;;
47539;SDS011;33280;52.152;21.052;2023-06-22T00:51:38;36.20;;;26.77;;
47539;SDS011;33280;52.152;21.052;2023-06-22T00:54:06;31.50;;;26.17;;
47539;SDS011;33280;52.152;21.052;2023-06-22T00:56:33;33.90;;;26.90;;
47539;SDS011;33280;52.152;21.052;2023-06-22T00:59:03;35.60;;;26.43;;
47539;SDS011;33280;52.152;21.052;2023-06-22T01:01:30;32.93;;;26.10;;
47539;SDS011;33280;52.152;21.052;2023-06-22T01:03:58;33.63;;;26.07;;
47539;SDS011;33280;52.152;21.052;2023-06-22T01:06:27;32.07;;;26.00;;
47539;SDS011;33280;52.152;21.052;2023-06-22T01:12:06;34.60;;;27.20;;
47539;SDS011;33280;52.152;21.052;2023-06-22T01:14:39;35.43;;;27.33;;
47539;SDS011;33280;52.152;21.052;2023-06-22T01:17:10;35.93;;;27.13;;
47539;SDS011;33280;52.152;21.052;2023-06-22T01:22:24;35.60;;;27.03;;
47539;SDS011;33280;52.152;21.052;2023-06-22T01:27:55;33.67;;;26.80;;
47539;SDS011;33280;52.152;21.052;2023-06-22T01:30:29;36.97;;;27.50;;
47539;SDS011;33280;52.152;21.052;2023-06-22T01:32:57;35.87;;;28.10;;
47539;SDS011;33280;52.152;21.052;2023-06-22T01:35:28;37.43;;;27.27;;
47539;SDS011;33280;52.152;21.052;2023-06-22T01:37:55;34.43;;;26.57;;
47539;SDS011;33280;52.152;21.052;2023-06-22T01:40:22;36.83;;;28.40;;
47539;SDS011;33280;52.152;21.052;2023-06-22T01:42:51;34.67;;;26.80;;
47539;SDS011;33280;52.152;21.052;2023-06-22T01:45:18;33.13;;;26.57;;
47539;SDS011;33280;52.152;21.052;2023-06-22T01:47:45;36.40;;;27.70;;
47539;SDS011;33280;52.152;21.052;2023-06-22T01:50:13;34.47;;;27.00;;
47539;SDS011;33280;52.152;21.052;2023-06-22T01:52:41;38.80;;;29.27;;
47539;SDS011;33280;52.152;21.052;2023-06-22T01:55:08;37.13;;;29.13;;
47539;SDS011;33280;52.152;21.052;2023-06-22T01:57:35;36.73;;;29.20;;
47539;SDS011;33280;52.152;21.052;2023-06-22T02:00:03;39.53;;;28.77;;
47539;SDS011;33280;52.152;21.052;2023-06-22T02:02:35;36.80;;;29.20;;
47539;SDS011;33280;52.152;21.052;2023-06-22T02:05:06;38.63;;;30.13;;
47539;SDS011;33280;52.152;21.052;2023-06-22T02:07:41;41.67;;;30.27;;
47539;SDS011;33280;52.152;21.052;2023-06-22T02:10:26;41.33;;;31.07;;
47539;SDS011;33280;52.152;21.052;2023-06-22T02:12:55;42.37;;;30.37;;
47539;SDS011;33280;52.152;21.052;2023-06-22T02:15:23;43.30;;;31.67;;
47539;SDS011;33280;52.152;21.052;2023-06-22T02:17:52;41.87;;;31.57;;
47539;SDS011;33280;52.152;21.052;2023-06-22T02:20:19;45.23;;;32.43;;
47539;SDS011;33280;52.152;21.052;2023-06-22T02:22:46;40.00;;;30.50;;
47539;SDS011;33280;52.152;21.052;2023-06-22T02:25:13;43.30;;;32.33;;
47539;SDS011;33280;52.152;21.052;2023-06-22T02:27:41;44.40;;;32.27;;
47539;SDS011;33280;52.152;21.052;2023-06-22T02:30:08;48.00;;;34.03;;
47539;SDS011;33280;52.152;21.052;2023-06-22T02:32:36;45.10;;;33.93;;
47539;SDS011;33280;52.152;21.052;2023-06-22T02:35:03;47.73;;;34.73;;
47539;SDS011;33280;52.152;21.052;2023-06-22T02:37:31;48.93;;;35.80;;
47539;SDS011;33280;52.152;21.052;2023-06-22T02:39:58;57.27;;;37.30;;
47539;SDS011;33280;52.152;21.052;2023-06-22T02:42:25;58.83;;;36.93;;
47539;SDS011;33280;52.152;21.052;2023-06-22T02:44:52;59.43;;;39.60;;
47539;SDS011;33280;52.152;21.052;2023-06-22T02:47:19;58.20;;;38.80;;
47539;SDS011;33280;52.152;21.052;2023-06-22T02:49:46;59.13;;;39.43;;
47539;SDS011;33280;52.152;21.052;2023-06-22T02:52:13;61.77;;;41.47;;
47539;SDS011;33280;52.152;21.052;2023-06-22T02:54:40;65.37;;;41.67;;
47539;SDS011;33280;52.152;21.052;2023-06-22T02:57:07;65.57;;;41.40;;
47539;SDS011;33280;52.152;21.052;2023-06-22T02:59:40;69.33;;;42.73;;
47539;SDS011;33280;52.152;21.052;2023-06-22T03:02:08;69.33;;;43.13;;
47539;SDS011;33280;52.152;21.052;2023-06-22T03:04:35;71.73;;;43.97;;
47539;SDS011;33280;52.152;21.052;2023-06-22T03:07:03;85.93;;;48.27;;
47539;SDS011;33280;52.152;21.052;2023-06-22T03:09:32;78.33;;;45.23;;
47539;SDS011;33280;52.152;21.052;2023-06-22T03:11:59;75.33;;;45.93;;
47539;SDS011;33280;52.152;21.052;2023-06-22T03:14:26;78.63;;;47.60;;
47539;SDS011;33280;52.152;21.052;2023-06-22T03:16:53;86.87;;;50.67;;
47539;SDS011;33280;52.152;21.052;2023-06-22T03:19:20;82.83;;;49.20;;
47539;SDS011;33280;52.152;21.052;2023-06-22T03:21:48;78.97;;;47.80;;
47539;SDS011;33280;52.152;21.052;2023-06-22T03:24:15;83.17;;;49.20;;
47539;SDS011;33280;52.152;21.052;2023-06-22T03:26:42;80.80;;;48.50;;
47539;SDS011;33280;52.152;21.052;2023-06-22T03:29:09;82.53;;;49.23;;
47539;SDS011;33280;52.152;21.052;2023-06-22T03:31:36;75.57;;;47.53;;
47539;SDS011;33280;52.152;21.052;2023-06-22T03:34:03;73.43;;;47.10;;
47539;SDS011;33280;52.152;21.052;2023-06-22T03:36:30;76.87;;;48.13;;
47539;SDS011;33280;52.152;21.052;2023-06-22T03:38:57;77.90;;;48.37;;
47539;SDS011;33280;52.152;21.052;2023-06-22T03:41:25;75.83;;;48.47;;
47539;SDS011;33280;52.152;21.052;2023-06-22T03:43:52;72.90;;;45.00;;
47539;SDS011;33280;52.152;21.052;2023-06-22T03:46:19;68.40;;;45.17;;
47539;SDS011;33280;52.152;21.052;2023-06-22T03:48:46;72.20;;;45.53;;
47539;SDS011;33280;52.152;21.052;2023-06-22T03:51:13;72.27;;;44.57;;
47539;SDS011;33280;52.152;21.052;2023-06-22T03:53:40;65.30;;;43.20;;
47539;SDS011;33280;52.152;21.052;2023-06-22T03:56:07;69.87;;;45.60;;
47539;SDS011;33280;52.152;21.052;2023-06-22T03:58:35;65.67;;;42.10;;
47539;SDS011;33280;52.152;21.052;2023-06-22T04:01:03;67.27;;;43.77;;
47539;SDS011;33280;52.152;21.052;2023-06-22T04:03:30;64.47;;;42.77;;
47539;SDS011;33280;52.152;21.052;2023-06-22T04:05:57;60.70;;;41.30;;
47539;SDS011;33280;52.152;21.052;2023-06-22T04:08:24;60.83;;;40.33;;
47539;SDS011;33280;52.152;21.052;2023-06-22T04:10:51;62.63;;;41.73;;
47539;SDS011;33280;52.152;21.052;2023-06-22T04:13:18;64.90;;;42.10;;
47539;SDS011;33280;52.152;21.052;2023-06-22T04:15:45;57.90;;;40.37;;
47539;SDS011;33280;52.152;21.052;2023-06-22T04:18:12;57.43;;;38.97;;
47539;SDS011;33280;52.152;21.052;2023-06-22T04:20:40;55.67;;;37.70;;
47539;SDS011;33280;52.152;21.052;2023-06-22T04:23:07;52.10;;;36.80;;
47539;SDS011;33280;52.152;21.052;2023-06-22T04:25:34;58.33;;;38.67;;
47539;SDS011;33280;52.152;21.052;2023-06-22T04:28:01;59.10;;;38.97;;
47539;SDS011;33280;52.152;21.052;2023-06-22T04:30:29;56.73;;;37.80;;
47539;SDS011;33280;52.152;21.052;2023-06-22T04:32:58;54.90;;;36.00;;
47539;SDS011;33280;52.152;21.052;2023-06-22T04:35:25;55.80;;;37.20;;
47539;SDS011;33280;52.152;21.052;2023-06-22T04:37:57;53.90;;;36.07;;
47539;SDS011;33280;52.152;21.052;2023-06-22T04:40:25;55.03;;;36.30;;
47539;SDS011;33280;52.152;21.052;2023-06-22T04:42:52;51.97;;;35.00;;
47539;SDS011;33280;52.152;21.052;2023-06-22T04:45:20;49.13;;;34.20;;
47539;SDS011;33280;52.152;21.052;2023-06-22T04:47:48;48.10;;;34.07;;
47539;SDS011;33280;52.152;21.052;2023-06-22T04:50:15;50.83;;;33.63;;
47539;SDS011;33280;52.152;21.052;2023-06-22T04:52:43;46.23;;;32.37;;
47539;SDS011;33280;52.152;21.052;2023-06-22T04:55:12;47.43;;;33.60;;
47539;SDS011;33280;52.152;21.052;2023-06-22T04:57:47;46.73;;;31.93;;
47539;SDS011;33280;52.152;21.052;2023-06-22T05:02:46;45.00;;;31.90;;
47539;SDS011;33280;52.152;21.052;2023-06-22T05:05:13;48.63;;;34.13;;
47539;SDS011;33280;52.152;21.052;2023-06-22T05:07:45;45.50;;;32.97;;
47539;SDS011;33280;52.152;21.052;2023-06-22T05:10:14;49.47;;;33.73;;
47539;SDS011;33280;52.152;21.052;2023-06-22T05:12:41;48.50;;;33.80;;
47539;SDS011;33280;52.152;21.052;2023-06-22T05:15:09;46.07;;;31.33;;
47539;SDS011;33280;52.152;21.052;2023-06-22T05:17:36;46.73;;;33.20;;
47539;SDS011;33280;52.152;21.052;2023-06-22T05:20:10;43.37;;;30.03;;
47539;SDS011;33280;52.152;21.052;2023-06-22T05:22:38;46.53;;;31.53;;
47539;SDS011;33280;52.152;21.052;2023-06-22T05:25:08;43.70;;;30.97;;
47539;SDS011;33280;52.152;21.052;2023-06-22T05:27:36;42.83;;;30.60;;
47539;SDS011;33280;52.152;21.052;2023-06-22T05:30:06;44.20;;;30.80;;
47539;SDS011;33280;52.152;21.052;2023-06-22T05:32:34;47.37;;;31.27;;
47539;SDS011;33280;52.152;21.052;2023-06-22T05:35:05;40.70;;;28.77;;
47539;SDS011;33280;52.152;21.052;2023-06-22T05:37:32;45.03;;;29.33;;
47539;SDS011;33280;52.152;21.052;2023-06-22T05:39:59;41.27;;;28.60;;
47539;SDS011;33280;52.152;21.052;2023-06-22T05:42:26;43.60;;;30.33;;
47539;SDS011;33280;52.152;21.052;2023-06-22T05:44:53;45.43;;;29.73;;
47539;SDS011;33280;52.152;21.052;2023-06-22T05:47:20;40.93;;;29.43;;
47539;SDS011;33280;52.152;21.052;2023-06-22T05:49:49;41.43;;;28.27;;
47539;SDS011;33280;52.152;21.052;2023-06-22T05:52:16;39.97;;;28.70;;
47539;SDS011;33280;52.152;21.052;2023-06-22T05:54:43;38.60;;;28.00;;
47539;SDS011;33280;52.152;21.052;2023-06-22T05:57:10;37.83;;;27.10;;
47539;SDS011;33280;52.152;21.052;2023-06-22T05:59:37;38.78;;;27.75;;
47539;SDS011;33280;52.152;21.052;2023-06-22T06:02:05;37.23;;;26.13;;
47539;SDS011;33280;52.152;21.052;2023-06-22T06:04:32;36.20;;;25.60;;
47539;SDS011;33280;52.152;21.052;2023-06-22T06:06:59;37.53;;;26.50;;
47539;SDS011;33280;52.152;21.052;2023-06-22T06:09:27;36.67;;;26.60;;
47539;SDS011;33280;52.152;21.052;2023-06-22T06:11:54;34.22;;;25.05;;
47539;SDS011;33280;52.152;21.052;2023-06-22T06:14:22;37.90;;;26.50;;
47539;SDS011;33280;52.152;21.052;2023-06-22T06:16:49;38.90;;;27.13;;
47539;SDS011;33280;52.152;21.052;2023-06-22T06:19:16;35.40;;;24.70;;
47539;SDS011;33280;52.152;21.052;2023-06-22T06:21:43;33.17;;;23.10;;
47539;SDS011;33280;52.152;21.052;2023-06-22T06:24:11;36.27;;;25.70;;
47539;SDS011;33280;52.152;21.052;2023-06-22T06:26:38;40.07;;;27.57;;
47539;SDS011;33280;52.152;21.052;2023-06-22T06:29:08;35.97;;;26.63;;
47539;SDS011;33280;52.152;21.052;2023-06-22T06:31:35;36.67;;;26.37;;
47539;SDS011;33280;52.152;21.052;2023-06-22T06:34:03;35.27;;;25.33;;
47539;SDS011;33280;52.152;21.052;2023-06-22T06:36:30;33.97;;;24.20;;
47539;SDS011;33280;52.152;21.052;2023-06-22T06:38:59;34.97;;;24.63;;
47539;SDS011;33280;52.152;21.052;2023-06-22T06:41:27;35.07;;;25.63;;
47539;SDS011;33280;52.152;21.052;2023-06-22T06:43:54;34.10;;;23.58;;
47539;SDS011;33280;52.152;21.052;2023-06-22T06:46:21;32.53;;;24.03;;
47539;SDS011;33280;52.152;21.052;2023-06-22T06:48:48;35.47;;;24.07;;
47539;SDS011;33280;52.152;21.052;2023-06-22T06:51:15;35.30;;;25.17;;
47539;SDS011;33280;52.152;21.052;2023-06-22T06:53:42;30.33;;;21.63;;
47539;SDS011;33280;52.152;21.052;2023-06-22T06:56:09;32.07;;;23.83;;
47539;SDS011;33280;52.152;21.052;2023-06-22T06:58:38;33.93;;;23.50;;
47539;SDS011;33280;52.152;21.052;2023-06-22T07:01:08;29.30;;;22.23;;
47539;SDS011;33280;52.152;21.052;2023-06-22T07:03:36;32.97;;;23.03;;
47539;SDS011;33280;52.152;21.052;2023-06-22T07:06:03;28.85;;;22.23;;
47539;SDS011;33280;52.152;21.052;2023-06-22T07:08:30;29.23;;;20.87;;
47539;SDS011;33280;52.152;21.052;2023-06-22T07:10:57;29.58;;;20.80;;
47539;SDS011;33280;52.152;21.052;2023-06-22T07:13:24;27.42;;;20.48;;
47539;SDS011;33280;52.152;21.052;2023-06-22T07:15:51;25.23;;;19.10;;
47539;SDS011;33280;52.152;21.052;2023-06-22T07:18:18;26.70;;;18.90;;
47539;SDS011;33280;52.152;21.052;2023-06-22T07:20:45;28.40;;;20.05;;
47539;SDS011;33280;52.152;21.052;2023-06-22T07:23:12;25.17;;;20.08;;
47539;SDS011;33280;52.152;21.052;2023-06-22T07:25:39;24.83;;;18.15;;
47539;SDS011;33280;52.152;21.052;2023-06-22T07:28:06;25.55;;;18.83;;
47539;SDS011;33280;52.152;21.052;2023-06-22T07:30:34;25.90;;;19.25;;
47539;SDS011;33280;52.152;21.052;2023-06-22T07:33:01;25.30;;;18.50;;
47539;SDS011;33280;52.152;21.052;2023-06-22T07:35:31;22.60;;;17.27;;
47539;SDS011;33280;52.152;21.052;2023-06-22T07:37:58;23.10;;;16.60;;
47539;SDS011;33280;52.152;21.052;2023-06-22T07:40:30;19.38;;;14.80;;
47539;SDS011;33280;52.152;21.052;2023-06-22T07:42:58;19.15;;;15.27;;
47539;SDS011;33280;52.152;21.052;2023-06-22T07:45:25;18.77;;;13.43;;
47539;SDS011;33280;52.152;21.052;2023-06-22T07:47:52;16.90;;;13.00;;
47539;SDS011;33280;52.152;21.052;2023-06-22T07:50:19;14.95;;;11.90;;
47539;SDS011;33280;52.152;21.052;2023-06-22T07:52:46;15.85;;;11.05;;
47539;SDS011;33280;52.152;21.052;2023-06-22T07:55:14;13.82;;;11.25;;
47539;SDS011;33280;52.152;21.052;2023-06-22T07:57:41;14.90;;;11.07;;
47539;SDS011;33280;52.152;21.052;2023-06-22T08:00:08;14.57;;;9.82;;
47539;SDS011;33280;52.152;21.052;2023-06-22T08:02:44;11.98;;;9.68;;
47539;SDS011;33280;52.152;21.052;2023-06-22T08:05:14;12.38;;;9.13;;
47539;SDS011;33280;52.152;21.052;2023-06-22T08:07:48;11.05;;;8.45;;
47539;SDS011;33280;52.152;21.052;2023-06-22T08:10:16;10.48;;;8.15;;
47539;SDS011;33280;52.152;21.052;2023-06-22T08:12:43;10.48;;;7.65;;
47539;SDS011;33280;52.152;21.052;2023-06-22T08:15:10;9.90;;;8.38;;
47539;SDS011;33280;52.152;21.052;2023-06-22T08:17:38;9.65;;;7.53;;
47539;SDS011;33280;52.152;21.052;2023-06-22T08:20:06;11.45;;;8.45;;
47539;SDS011;33280;52.152;21.052;2023-06-22T08:22:40;11.07;;;7.85;;
47539;SDS011;33280;52.152;21.052;2023-06-22T08:25:08;12.00;;;8.48;;
47539;SDS011;33280;52.152;21.052;2023-06-22T08:27:36;9.85;;;7.28;;
47539;SDS011;33280;52.152;21.052;2023-06-22T08:30:03;9.20;;;7.32;;
47539;SDS011;33280;52.152;21.052;2023-06-22T08:32:31;8.70;;;7.30;;
47539;SDS011;33280;52.152;21.052;2023-06-22T08:35:01;13.55;;;7.82;;
47539;SDS011;33280;52.152;21.052;2023-06-22T08:37:28;10.02;;;7.25;;
47539;SDS011;33280;52.152;21.052;2023-06-22T08:40:02;10.18;;;7.20;;
47539;SDS011;33280;52.152;21.052;2023-06-22T08:42:35;9.57;;;6.85;;
47539;SDS011;33280;52.152;21.052;2023-06-22T08:45:03;8.40;;;6.85;;
47539;SDS011;33280;52.152;21.052;2023-06-22T08:47:30;10.27;;;6.38;;
47539;SDS011;33280;52.152;21.052;2023-06-22T08:49:57;11.18;;;6.75;;
47539;SDS011;33280;52.152;21.052;2023-06-22T08:52:24;8.82;;;6.63;;
47539;SDS011;33280;52.152;21.052;2023-06-22T08:54:52;33.70;;;8.38;;
47539;SDS011;33280;52.152;21.052;2023-06-22T08:57:20;39.58;;;9.95;;
47539;SDS011;33280;52.152;21.052;2023-06-22T08:59:47;13.30;;;6.18;;
47539;SDS011;33280;52.152;21.052;2023-06-22T09:02:14;9.10;;;5.95;;
47539;SDS011;33280;52.152;21.052;2023-06-22T09:04:41;11.05;;;5.85;;
47539;SDS011;33280;52.152;21.052;2023-06-22T09:07:09;10.32;;;5.25;;
47539;SDS011;33280;52.152;21.052;2023-06-22T09:09:36;6.53;;;5.03;;
47539;SDS011;33280;52.152;21.052;2023-06-22T09:12:03;6.93;;;4.75;;
47539;SDS011;33280;52.152;21.052;2023-06-22T09:14:30;5.30;;;4.68;;
47539;SDS011;33280;52.152;21.052;2023-06-22T09:16:57;6.97;;;4.60;;
47539;SDS011;33280;52.152;21.052;2023-06-22T09:19:24;9.18;;;4.88;;
47539;SDS011;33280;52.152;21.052;2023-06-22T09:21:51;7.45;;;4.47;;
47539;SDS011;33280;52.152;21.052;2023-06-22T09:24:18;5.95;;;4.47;;
47539;SDS011;33280;52.152;21.052;2023-06-22T09:26:45;6.32;;;4.03;;
47539;SDS011;33280;52.152;21.052;2023-06-22T09:29:12;4.95;;;4.00;;
47539;SDS011;33280;52.152;21.052;2023-06-22T09:31:39;7.20;;;4.30;;
47539;SDS011;33280;52.152;21.052;2023-06-22T09:34:07;5.80;;;4.07;;
47539;SDS011;33280;52.152;21.052;2023-06-22T09:36:34;6.28;;;3.75;;
47539;SDS011;33280;52.152;21.052;2023-06-22T09:39:01;6.05;;;4.07;;
47539;SDS011;33280;52.152;21.052;2023-06-22T09:41:32;7.25;;;4.88;;
47539;SDS011;33280;52.152;21.052;2023-06-22T09:43:59;6.20;;;4.28;;
47539;SDS011;33280;52.152;21.052;2023-06-22T09:46:26;5.22;;;4.10;;
47539;SDS011;33280;52.152;21.052;2023-06-22T09:48:54;5.07;;;3.97;;
47539;SDS011;33280;52.152;21.052;2023-06-22T09:51:21;6.38;;;4.10;;
47539;SDS011;33280;52.152;21.052;2023-06-22T09:53:50;7.05;;;4.03;;
47539;SDS011;33280;52.152;21.052;2023-06-22T09:56:18;6.60;;;4.03;;
47539;SDS011;33280;52.152;21.052;2023-06-22T09:58:46;6.25;;;3.92;;
47539;SDS011;33280;52.152;21.052;2023-06-22T10:01:13;8.60;;;4.25;;
47539;SDS011;33280;52.152;21.052;2023-06-22T10:03:43;4.95;;;3.88;;
47539;SDS011;33280;52.152;21.052;2023-06-22T10:06:10;5.95;;;4.18;;
47539;SDS011;33280;52.152;21.052;2023-06-22T10:08:37;6.60;;;4.18;;
47539;SDS011;33280;52.152;21.052;2023-06-22T10:11:05;6.88;;;4.13;;
47539;SDS011;33280;52.152;21.052;2023-06-22T10:13:32;6.63;;;4.40;;
47539;SDS011;33280;52.152;21.052;2023-06-22T10:15:59;4.55;;;3.85;;
47539;SDS011;33280;52.152;21.052;2023-06-22T10:18:27;5.20;;;3.67;;
47539;SDS011;33280;52.152;21.052;2023-06-22T10:20:54;5.80;;;3.92;;
47539;SDS011;33280;52.152;21.052;2023-06-22T10:23:21;6.32;;;4.25;;
47539;SDS011;33280;52.152;21.052;2023-06-22T10:25:48;6.95;;;4.30;;
47539;SDS011;33280;52.152;21.052;2023-06-22T10:28:15;18.50;;;5.68;;
47539;SDS011;33280;52.152;21.052;2023-06-22T10:30:43;8.35;;;4.40;;
47539;SDS011;33280;52.152;21.052;2023-06-22T10:33:11;6.00;;;4.10;;
47539;SDS011;33280;52.152;21.052;2023-06-22T10:35:38;13.45;;;4.65;;
47539;SDS011;33280;52.152;21.052;2023-06-22T10:38:08;5.78;;;4.40;;
47539;SDS011;33280;52.152;21.052;2023-06-22T10:40:36;7.53;;;4.55;;
47539;SDS011;33280;52.152;21.052;2023-06-22T10:43:03;7.07;;;4.13;;
47539;SDS011;33280;52.152;21.052;2023-06-22T10:45:29;5.75;;;3.83;;
47539;SDS011;33280;52.152;21.052;2023-06-22T10:47:57;7.10;;;4.30;;
47539;SDS011;33280;52.152;21.052;2023-06-22T10:50:24;5.97;;;4.00;;
47539;SDS011;33280;52.152;21.052;2023-06-22T10:52:52;7.63;;;4.40;;
47539;SDS011;33280;52.152;21.052;2023-06-22T10:55:22;6.03;;;4.30;;
47539;SDS011;33280;52.152;21.052;2023-06-22T10:57:49;8.02;;;4.60;;
47539;SDS011;33280;52.152;21.052;2023-06-22T11:00:16;6.13;;;4.25;;
47539;SDS011;33280;52.152;21.052;2023-06-22T11:02:43;7.50;;;4.50;;
47539;SDS011;33280;52.152;21.052;2023-06-22T11:05:11;7.32;;;4.65;;
47539;SDS011;33280;52.152;21.052;2023-06-22T11:07:41;5.60;;;4.35;;
47539;SDS011;33280;52.152;21.052;2023-06-22T11:10:10;5.32;;;4.35;;
47539;SDS011;33280;52.152;21.052;2023-06-22T11:12:38;14.05;;;5.38;;
47539;SDS011;33280;52.152;21.052;2023-06-22T11:15:05;6.18;;;4.47;;
47539;SDS011;33280;52.152;21.052;2023-06-22T11:17:33;7.05;;;4.50;;
47539;SDS011;33280;52.152;21.052;2023-06-22T11:20:00;5.25;;;4.43;;
47539;SDS011;33280;52.152;21.052;2023-06-22T11:22:28;6.97;;;4.22;;
47539;SDS011;33280;52.152;21.052;2023-06-22T11:24:56;5.40;;;3.70;;
47539;SDS011;33280;52.152;21.052;2023-06-22T11:27:23;5.78;;;3.97;;
47539;SDS011;33280;52.152;21.052;2023-06-22T11:29:50;7.47;;;4.22;;
47539;SDS011;33280;52.152;21.052;2023-06-22T11:32:19;5.90;;;4.15;;
47539;SDS011;33280;52.152;21.052;2023-06-22T11:34:46;6.63;;;3.90;;
47539;SDS011;33280;52.152;21.052;2023-06-22T11:37:13;5.68;;;4.63;;
47539;SDS011;33280;52.152;21.052;2023-06-22T11:39:40;5.32;;;3.88;;
47539;SDS011;33280;52.152;21.052;2023-06-22T11:42:18;8.48;;;4.10;;
47539;SDS011;33280;52.152;21.052;2023-06-22T11:44:46;5.70;;;4.22;;
47539;SDS011;33280;52.152;21.052;2023-06-22T11:47:12;5.60;;;4.50;;
47539;SDS011;33280;52.152;21.052;2023-06-22T11:49:40;8.02;;;4.53;;
47539;SDS011;33280;52.152;21.052;2023-06-22T11:52:07;6.82;;;4.35;;
47539;SDS011;33280;52.152;21.052;2023-06-22T11:54:34;8.48;;;4.00;;
47539;SDS011;33280;52.152;21.052;2023-06-22T11:57:01;6.85;;;4.10;;
47539;SDS011;33280;52.152;21.052;2023-06-22T11:59:29;6.15;;;4.35;;
47539;SDS011;33280;52.152;21.052;2023-06-22T12:01:56;6.05;;;4.18;;
47539;SDS011;33280;52.152;21.052;2023-06-22T12:04:24;7.07;;;4.50;;
47539;SDS011;33280;52.152;21.052;2023-06-22T12:06:51;5.43;;;3.90;;
47539;SDS011;33280;52.152;21.052;2023-06-22T12:09:18;6.03;;;3.70;;
47539;SDS011;33280;52.152;21.052;2023-06-22T12:11:45;7.95;;;4.30;;
47539;SDS011;33280;52.152;21.052;2023-06-22T12:14:12;5.90;;;4.03;;
47539;SDS011;33280;52.152;21.052;2023-06-22T12:16:39;6.28;;;4.30;;
47539;SDS011;33280;52.152;21.052;2023-06-22T12:19:06;6.75;;;4.80;;
47539;SDS011;33280;52.152;21.052;2023-06-22T12:21:33;5.88;;;4.15;;
47539;SDS011;33280;52.152;21.052;2023-06-22T12:24:00;7.13;;;4.43;;
47539;SDS011;33280;52.152;21.052;2023-06-22T12:26:27;7.18;;;4.15;;
47539;SDS011;33280;52.152;21.052;2023-06-22T12:28:54;6.00;;;4.20;;
47539;SDS011;33280;52.152;21.052;2023-06-22T12:31:21;5.45;;;3.90;;
47539;SDS011;33280;52.152;21.052;2023-06-22T12:33:48;6.85;;;4.43;;
47539;SDS011;33280;52.152;21.052;2023-06-22T12:36:15;5.75;;;4.47;;
47539;SDS011;33280;52.152;21.052;2023-06-22T12:38:42;5.05;;;4.00;;
47539;SDS011;33280;52.152;21.052;2023-06-22T12:41:09;5.85;;;3.80;;
47539;SDS011;33280;52.152;21.052;2023-06-22T12:43:36;7.90;;;3.80;;
47539;SDS011;33280;52.152;21.052;2023-06-22T12:46:04;15.55;;;5.10;;
47539;SDS011;33280;52.152;21.052;2023-06-22T12:48:30;6.13;;;4.35;;
47539;SDS011;33280;52.152;21.052;2023-06-22T12:50:57;44.40;;;7.35;;
47539;SDS011;33280;52.152;21.052;2023-06-22T12:53:24;10.38;;;4.50;;
47539;SDS011;33280;52.152;21.052;2023-06-22T12:55:53;6.18;;;3.78;;
47539;SDS011;33280;52.152;21.052;2023-06-22T12:58:20;3.97;;;3.58;;
47539;SDS011;33280;52.152;21.052;2023-06-22T13:00:48;4.82;;;4.05;;
47539;SDS011;33280;52.152;21.052;2023-06-22T13:03:15;5.80;;;3.97;;
47539;SDS011;33280;52.152;21.052;2023-06-22T13:05:42;5.95;;;4.05;;
47539;SDS011;33280;52.152;21.052;2023-06-22T13:08:09;6.30;;;3.80;;
47539;SDS011;33280;52.152;21.052;2023-06-22T13:10:38;6.38;;;4.03;;
47539;SDS011;33280;52.152;21.052;2023-06-22T13:13:05;10.65;;;4.78;;
47539;SDS011;33280;52.152;21.052;2023-06-22T13:15:32;7.88;;;4.10;;
47539;SDS011;33280;52.152;21.052;2023-06-22T13:18:00;6.15;;;4.07;;
47539;SDS011;33280;52.152;21.052;2023-06-22T13:20:28;4.57;;;3.65;;
47539;SDS011;33280;52.152;21.052;2023-06-22T13:22:55;4.93;;;3.78;;
47539;SDS011;33280;52.152;21.052;2023-06-22T13:25:23;4.70;;;3.70;;
47539;SDS011;33280;52.152;21.052;2023-06-22T13:27:53;5.07;;;3.83;;
47539;SDS011;33280;52.152;21.052;2023-06-22T13:30:20;5.53;;;3.85;;
47539;SDS011;33280;52.152;21.052;2023-06-22T13:32:47;8.75;;;4.60;;
47539;SDS011;33280;52.152;21.052;2023-06-22T13:35:14;4.95;;;4.05;;
47539;SDS011;33280;52.152;21.052;2023-06-22T13:37:41;4.28;;;3.88;;
47539;SDS011;33280;52.152;21.052;2023-06-22T13:40:11;5.95;;;3.97;;
47539;SDS011;33280;52.152;21.052;2023-06-22T13:42:38;5.18;;;4.10;;
47539;SDS011;33280;52.152;21.052;2023-06-22T13:45:06;8.57;;;3.97;;
47539;SDS011;33280;52.152;21.052;2023-06-22T13:47:34;4.72;;;3.97;;
47539;SDS011;33280;52.152;21.052;2023-06-22T13:50:01;6.13;;;4.20;;
47539;SDS011;33280;52.152;21.052;2023-06-22T13:52:28;6.20;;;3.88;;
47539;SDS011;33280;52.152;21.052;2023-06-22T13:54:55;5.13;;;3.70;;
47539;SDS011;33280;52.152;21.052;2023-06-22T13:57:22;5.90;;;3.67;;
47539;SDS011;33280;52.152;21.052;2023-06-22T13:59:49;4.07;;;3.58;;
47539;SDS011;33280;52.152;21.052;2023-06-22T14:02:16;4.45;;;3.50;;
47539;SDS011;33280;52.152;21.052;2023-06-22T14:04:43;8.82;;;3.60;;
47539;SDS011;33280;52.152;21.052;2023-06-22T14:07:11;4.70;;;3.67;;
47539;SDS011;33280;52.152;21.052;2023-06-22T14:09:39;4.75;;;3.40;;
47539;SDS011;33280;52.152;21.052;2023-06-22T14:12:07;5.72;;;3.40;;
47539;SDS011;33280;52.152;21.052;2023-06-22T14:14:34;5.55;;;3.67;;
47539;SDS011;33280;52.152;21.052;2023-06-22T14:17:01;7.70;;;3.67;;
47539;SDS011;33280;52.152;21.052;2023-06-22T14:19:28;9.23;;;4.32;;
47539;SDS011;33280;52.152;21.052;2023-06-22T14:21:55;3.88;;;3.30;;
47539;SDS011;33280;52.152;21.052;2023-06-22T14:24:23;4.47;;;3.80;;
47539;SDS011;33280;52.152;21.052;2023-06-22T14:26:54;5.25;;;3.95;;
47539;SDS011;33280;52.152;21.052;2023-06-22T14:29:22;7.13;;;4.30;;
47539;SDS011;33280;52.152;21.052;2023-06-22T14:31:49;4.63;;;3.75;;